Time;durP1;ratioP1;P1;durP2;ratioP2;P2;SDS_P1;SDS_P2;PMS_P1;PMS_P2;Temp;Humidity;BMP_temperature;BMP_pressure;BME280_temperature;BME280_humidity;BME280_pressure;Samples;Min_cycle;Max_cycle;Signal;HPM_P1;HPM_P2
2022/04/14 00:00:21;;;;;;;24.48;23.13;;;;;;;;;;5080827;28;20449;-56
2022/04/14 00:02:46;;;;;;;35.28;33.45;;;;;;;;;;5079703;28;20109;-54
2022/04/14 00:05:12;;;;;;;27.25;25.77;;;;;;;;;;5076679;28;20366;-55
2022/04/14 00:07:38;;;;;;;17.38;16.35;;;;;;;;;;5076162;28;20028;-56
2022/04/14 00:10:04;;;;;;;32.33;30.65;;;;;;;;;;5080022;28;20466;-55
2022/04/14 00:12:29;;;;;;;40.00;37.90;;;;;;;;;;5075176;28;20028;-53
2022/04/14 00:14:55;;;;;;;34.20;32.40;;;;;;;;;;5080750;28;20074;-54
2022/04/14 00:17:20;;;;;;;47.85;45.42;;;;;;;;;;5074072;28;20061;-56
2022/04/14 00:19:45;;;;;;;40.40;38.30;;;;;;;;;;5076669;28;20500;-56
2022/04/14 00:22:11;;;;;;;41.70;39.53;;;;;;;;;;5076497;28;20036;-56
2022/04/14 00:24:36;;;;;;;30.70;29.10;;;;;;;;;;5078494;28;20113;-54
2022/04/14 00:27:02;;;;;;;41.60;39.45;;;;;;;;;;5075658;28;20051;-56
2022/04/14 00:29:28;;;;;;;50.63;47.95;;;;;;;;;;5074958;28;20036;-55
2022/04/14 00:31:53;;;;;;;41.88;39.70;;;;;;;;;;5078792;28;20025;-53
2022/04/14 00:34:19;;;;;;;25.85;24.42;;;;;;;;;;5075779;28;20123;-55
2022/04/14 00:36:44;;;;;;;26.75;25.25;;;;;;;;;;5074975;28;20461;-55
2022/04/14 00:39:10;;;;;;;36.28;34.38;;;;;;;;;;5077212;28;20036;-55
2022/04/14 00:41:37;;;;;;;30.23;28.42;;;;;;;;;;5075001;28;20028;-55
2022/04/14 00:44:03;;;;;;;38.45;36.47;;;;;;;;;;5073913;28;20101;-55
2022/04/14 00:46:28;;;;;;;34.22;32.42;;;;;;;;;;5075409;28;20036;-56
2022/04/14 00:48:54;;;;;;;17.63;16.52;;;;;;;;;;5075782;28;20101;-52
2022/04/14 00:51:20;;;;;;;16.80;15.77;;;;;;;;;;5075715;28;20033;-55
2022/04/14 00:53:45;;;;;;;22.35;21.15;;;;;;;;;;5082736;28;20036;-55
2022/04/14 00:56:11;;;;;;;35.28;33.42;;;;;;;;;;5079850;28;20048;-54
2022/04/14 00:58:36;;;;;;;44.00;41.65;;;;;;;;;;5078532;28;20111;-54
2022/04/14 01:01:05;;;;;;;42.92;40.67;;;;;;;;;;5078511;28;20112;-55
2022/04/14 01:03:31;;;;;;;34.55;32.60;;;;;;;;;;5078429;28;20038;-57
2022/04/14 01:05:56;;;;;;;37.95;35.85;;;;;;;;;;5075655;28;20119;-56
2022/04/14 01:08:22;;;;;;;43.20;40.97;;;;;;;;;;5074591;28;20458;-55
2022/04/14 01:10:49;;;;;;;41.50;39.35;;;;;;;;;;5072656;28;20429;-56
2022/04/14 01:13:18;;;;;;;34.67;32.85;;;;;;;;;;5075074;28;20028;-55
2022/04/14 01:15:48;;;;;;;38.65;36.65;;;;;;;;;;5076408;28;20050;-55
2022/04/14 01:18:14;;;;;;;36.05;34.05;;;;;;;;;;5074044;28;20032;-55
2022/04/14 01:20:41;;;;;;;38.20;36.20;;;;;;;;;;5076658;28;20074;-55
2022/04/14 01:23:09;;;;;;;37.17;35.28;;;;;;;;;;5076297;28;20039;-56
2022/04/14 01:25:35;;;;;;;28.92;27.30;;;;;;;;;;5076801;28;20032;-54
2022/04/14 01:28:04;;;;;;;34.10;32.35;;;;;;;;;;5075026;28;20365;-55
2022/04/14 01:30:30;;;;;;;40.53;38.42;;;;;;;;;;5075477;28;20618;-56
2022/04/14 01:32:56;;;;;;;29.10;27.58;;;;;;;;;;5074162;28;20036;-56
2022/04/14 01:35:22;;;;;;;33.50;31.77;;;;;;;;;;5077541;28;20032;-56
2022/04/14 01:37:48;;;;;;;31.42;29.83;;;;;;;;;;5073688;28;20036;-56
2022/04/14 01:40:14;;;;;;;30.10;28.50;;;;;;;;;;5074598;28;20035;-56
2022/04/14 01:42:39;;;;;;;31.33;29.65;;;;;;;;;;5074940;28;20515;-56
2022/04/14 01:45:10;;;;;;;29.90;28.30;;;;;;;;;;5076353;28;20063;-56
2022/04/14 01:47:42;;;;;;;;;;;;;;;;;;5077380;28;20048;-56
2022/04/14 01:50:10;;;;;;;32.20;30.50;;;;;;;;;;5075386;28;19943;-54
2022/04/14 01:52:36;;;;;;;31.70;30.02;;;;;;;;;;5076968;28;20043;-55
2022/04/14 01:55:05;;;;;;;29.23;27.70;;;;;;;;;;5076152;28;20028;-55
2022/04/14 01:57:31;;;;;;;25.92;24.55;;;;;;;;;;5075363;28;20043;-56
2022/04/14 02:00:00;;;;;;;21.08;19.90;;;;;;;;;;5072092;28;20024;-55
2022/04/14 02:02:26;;;;;;;23.67;22.40;;;;;;;;;;5076006;28;20032;-54
2022/04/14 02:04:51;;;;;;;20.95;19.80;;;;;;;;;;5073442;28;20109;-56
2022/04/14 02:07:18;;;;;;;17.63;16.65;;;;;;;;;;5073124;28;20060;-55
2022/04/14 02:09:43;;;;;;;16.83;15.82;;;;;;;;;;5070762;28;20039;-55
2022/04/14 02:12:11;;;;;;;15.48;14.43;;;;;;;;;;5074393;28;20024;-54
2022/04/14 02:14:37;;;;;;;13.35;12.55;;;;;;;;;;5074322;28;20381;-55
2022/04/14 02:17:02;;;;;;;15.13;14.20;;;;;;;;;;5074473;28;20412;-52
2022/04/14 02:19:28;;;;;;;12.27;11.52;;;;;;;;;;5072392;28;20092;-54
2022/04/14 02:21:54;;;;;;;10.55;9.93;;;;;;;;;;5071852;28;20029;-55
2022/04/14 02:24:20;;;;;;;11.70;10.70;;;;;;;;;;5075598;28;20058;-55
2022/04/14 02:26:45;;;;;;;12.85;12.07;;;;;;;;;;5073687;28;20064;-55
2022/04/14 02:29:10;;;;;;;10.02;9.38;;;;;;;;;;5074529;28;20126;-54
2022/04/14 02:31:36;;;;;;;12.32;11.43;;;;;;;;;;5078966;28;20127;-48
2022/04/14 02:34:01;;;;;;;12.25;11.52;;;;;;;;;;5073057;28;20044;-49
2022/04/14 02:36:26;;;;;;;10.90;10.20;;;;;;;;;;5075858;28;20036;-46
2022/04/14 02:38:52;;;;;;;12.90;12.13;;;;;;;;;;5074088;28;20085;-46
2022/04/14 02:41:17;;;;;;;14.32;13.43;;;;;;;;;;5071331;28;20194;-45
2022/04/14 02:43:42;;;;;;;14.15;13.23;;;;;;;;;;5068651;28;20051;-45
2022/04/14 02:46:08;;;;;;;15.73;14.82;;;;;;;;;;5064806;28;20124;-47
2022/04/14 02:48:33;;;;;;;14.80;13.93;;;;;;;;;;5068183;28;20127;-45
2022/04/14 02:50:59;;;;;;;16.65;15.27;;;;;;;;;;5075664;28;20370;-46
2022/04/14 02:53:25;;;;;;;13.93;13.02;;;;;;;;;;5067589;28;20591;-46
2022/04/14 02:55:50;;;;;;;10.82;10.13;;;;;;;;;;5067101;28;20048;-46
2022/04/14 02:58:15;;;;;;;12.30;11.45;;;;;;;;;;5068872;28;20458;-45
2022/04/14 03:00:41;;;;;;;16.95;15.85;;;;;;;;;;5070334;28;20040;-46
2022/04/14 03:03:06;;;;;;;13.35;12.57;;;;;;;;;;5063499;28;20673;-45
2022/04/14 03:05:32;;;;;;;14.18;13.27;;;;;;;;;;5073141;28;20044;-46
2022/04/14 03:07:57;;;;;;;19.13;17.42;;;;;;;;;;5071667;28;20170;-47
2022/04/14 03:10:22;;;;;;;13.50;12.65;;;;;;;;;;5067736;28;20456;-46
2022/04/14 03:12:49;;;;;;;14.15;13.27;;;;;;;;;;5071541;28;20453;-45
2022/04/14 03:15:16;;;;;;;15.40;14.52;;;;;;;;;;5067161;28;20025;-47
2022/04/14 03:17:42;;;;;;;16.27;15.32;;;;;;;;;;5065078;28;20115;-45
2022/04/14 03:20:10;;;;;;;13.90;13.10;;;;;;;;;;5068652;28;20032;-47
2022/04/14 03:22:36;;;;;;;10.98;10.30;;;;;;;;;;5063775;28;20093;-48
2022/04/14 03:25:04;;;;;;;13.80;12.90;;;;;;;;;;5068451;28;20116;-46
2022/04/14 03:27:29;;;;;;;10.95;10.25;;;;;;;;;;5069312;28;20059;-49
2022/04/14 03:29:55;;;;;;;14.05;13.23;;;;;;;;;;5068428;28;20525;-45
2022/04/14 03:32:22;;;;;;;13.18;12.27;;;;;;;;;;5065239;28;20051;-45
2022/04/14 03:34:48;;;;;;;13.50;12.60;;;;;;;;;;5069188;28;20044;-45
2022/04/14 03:37:13;;;;;;;13.02;12.23;;;;;;;;;;5063685;28;20033;-45
2022/04/14 03:39:38;;;;;;;12.27;11.48;;;;;;;;;;5072426;28;20062;-45
2022/04/14 03:42:04;;;;;;;12.30;11.40;;;;;;;;;;5073645;28;20107;-46
2022/04/14 03:44:29;;;;;;;11.82;11.13;;;;;;;;;;5076182;28;20692;-46
2022/04/14 03:46:55;;;;;;;11.77;11.02;;;;;;;;;;5076815;28;20032;-46
2022/04/14 03:49:20;;;;;;;10.60;9.95;;;;;;;;;;5076195;28;20043;-46
2022/04/14 03:51:45;;;;;;;14.05;13.18;;;;;;;;;;5073759;28;20043;-45
2022/04/14 03:54:11;;;;;;;13.18;12.27;;;;;;;;;;5069382;28;20036;-45
2022/04/14 03:56:36;;;;;;;13.05;12.25;;;;;;;;;;5071941;28;20124;-46
2022/04/14 03:59:01;;;;;;;14.55;13.68;;;;;;;;;;5070604;28;20115;-46
2022/04/14 04:01:27;;;;;;;12.70;11.90;;;;;;;;;;5069955;28;20433;-47
2022/04/14 04:03:52;;;;;;;13.30;12.50;;;;;;;;;;5071535;28;20036;-46
2022/04/14 04:06:17;;;;;;;15.43;14.52;;;;;;;;;;5071068;28;20063;-46
2022/04/14 04:08:43;;;;;;;18.50;17.20;;;;;;;;;;5067707;28;20119;-46
2022/04/14 04:11:08;;;;;;;16.73;15.70;;;;;;;;;;5070860;28;20523;-48
2022/04/14 04:13:33;;;;;;;18.08;17.05;;;;;;;;;;5070120;28;20032;-47
2022/04/14 04:15:59;;;;;;;18.90;17.75;;;;;;;;;;5073760;28;20450;-46
2022/04/14 04:18:24;;;;;;;17.80;16.70;;;;;;;;;;5071348;28;20541;-46
2022/04/14 04:20:49;;;;;;;16.65;15.57;;;;;;;;;;5073228;28;20724;-46
2022/04/14 04:23:15;;;;;;;12.65;11.85;;;;;;;;;;5074382;28;20041;-48
2022/04/14 04:25:40;;;;;;;11.70;10.90;;;;;;;;;;5073219;28;20039;-47
2022/04/14 04:28:06;;;;;;;12.13;11.38;;;;;;;;;;5074062;28;20077;-46
2022/04/14 04:30:31;;;;;;;14.68;13.45;;;;;;;;;;5070423;28;20024;-47
2022/04/14 04:32:57;;;;;;;14.40;13.18;;;;;;;;;;5070980;28;20109;-47
2022/04/14 04:35:22;;;;;;;13.25;12.23;;;;;;;;;;5070857;28;20040;-48
2022/04/14 04:37:47;;;;;;;11.15;10.45;;;;;;;;;;5072375;28;20035;-56
2022/04/14 04:40:14;;;;;;;19.20;11.20;;;;;;;;;;5081154;28;20032;-57
2022/04/14 04:42:39;;;;;;;10.63;9.93;;;;;;;;;;5075584;28;20111;-55
2022/04/14 04:45:05;;;;;;;11.23;10.43;;;;;;;;;;5078348;28;20119;-54
2022/04/14 04:47:30;;;;;;;9.15;8.50;;;;;;;;;;5075252;28;20041;-53
2022/04/14 04:49:55;;;;;;;9.30;8.70;;;;;;;;;;5076517;28;20060;-53
2022/04/14 04:52:21;;;;;;;10.05;9.45;;;;;;;;;;5074697;28;20043;-54
2022/04/14 04:54:46;;;;;;;9.98;9.15;;;;;;;;;;5074288;28;20437;-56
2022/04/14 04:57:11;;;;;;;9.18;8.32;;;;;;;;;;5080604;28;20988;-54
2022/04/14 04:59:37;;;;;;;10.30;9.43;;;;;;;;;;5077419;28;20031;-55
2022/04/14 05:02:02;;;;;;;11.27;10.48;;;;;;;;;;5077778;28;20111;-54
2022/04/14 05:04:28;;;;;;;10.30;9.50;;;;;;;;;;5077078;28;20028;-53
2022/04/14 05:06:53;;;;;;;11.80;11.05;;;;;;;;;;5078135;28;20035;-54
2022/04/14 05:09:20;;;;;;;12.50;11.60;;;;;;;;;;5078096;28;20425;-53
2022/04/14 05:11:45;;;;;;;10.70;9.90;;;;;;;;;;5074944;28;20040;-54
2022/04/14 05:14:11;;;;;;;12.23;11.35;;;;;;;;;;5074981;28;20036;-55
2022/04/14 05:16:36;;;;;;;11.90;11.00;;;;;;;;;;5076534;28;20040;-53
2022/04/14 05:19:02;;;;;;;10.38;9.27;;;;;;;;;;5057329;28;20342;-54
2022/04/14 05:21:27;;;;;;;12.10;11.00;;;;;;;;;;5074931;28;20451;-56
2022/04/14 05:23:53;;;;;;;11.88;11.07;;;;;;;;;;5079342;28;20154;-56
2022/04/14 05:26:18;;;;;;;9.88;9.00;;;;;;;;;;5073982;28;20024;-56
2022/04/14 05:28:43;;;;;;;10.93;10.13;;;;;;;;;;5078870;28;20032;-56
2022/04/14 05:31:09;;;;;;;9.65;8.95;;;;;;;;;;5077593;28;20031;-54
2022/04/14 05:33:34;;;;;;;11.25;10.45;;;;;;;;;;5074986;28;20184;-56
2022/04/14 05:35:59;;;;;;;9.48;8.77;;;;;;;;;;5073210;28;20119;-53
2022/04/14 05:38:25;;;;;;;9.55;8.85;;;;;;;;;;5076976;28;20064;-55
2022/04/14 05:40:51;;;;;;;10.88;9.95;;;;;;;;;;5077991;28;20024;-55
2022/04/14 05:43:30;;;;;;;9.57;8.88;;;;;;;;;;5074626;28;20059;-55
2022/04/14 05:45:56;;;;;;;9.70;8.80;;;;;;;;;;5076427;28;20043;-54
2022/04/14 05:48:22;;;;;;;8.95;8.35;;;;;;;;;;5074751;28;20036;-54
2022/04/14 05:50:49;;;;;;;10.55;9.65;;;;;;;;;;5071644;28;20036;-46
2022/04/14 05:53:15;;;;;;;9.60;8.90;;;;;;;;;;5068150;28;20163;-47
2022/04/14 05:55:41;;;;;;;9.23;8.38;;;;;;;;;;5067373;28;20056;-46
2022/04/14 05:58:07;;;;;;;9.52;8.73;;;;;;;;;;5068117;28;20429;-47
2022/04/14 06:00:33;;;;;;;9.77;9.07;;;;;;;;;;5068380;28;20111;-46
2022/04/14 06:02:59;;;;;;;8.63;8.00;;;;;;;;;;5070485;28;20115;-46
2022/04/14 06:05:29;;;;;;;12.10;11.18;;;;;;;;;;5069983;28;20111;-47
2022/04/14 06:07:54;;;;;;;13.88;12.98;;;;;;;;;;5070790;28;20059;-47
2022/04/14 06:10:21;;;;;;;18.90;17.52;;;;;;;;;;5067611;28;20118;-47
2022/04/14 06:12:47;;;;;;;18.40;17.25;;;;;;;;;;5071043;28;20045;-48
2022/04/14 06:15:13;;;;;;;20.83;19.60;;;;;;;;;;5065316;28;20028;-46
2022/04/14 06:17:39;;;;;;;24.25;22.85;;;;;;;;;;5065304;28;20030;-46
2022/04/14 06:20:05;;;;;;;25.10;23.60;;;;;;;;;;5068357;28;20077;-46
2022/04/14 06:22:30;;;;;;;35.00;33.10;;;;;;;;;;5070947;28;20481;-46
2022/04/14 06:24:58;;;;;;;40.95;38.67;;;;;;;;;;5069893;28;20047;-47
2022/04/14 06:27:24;;;;;;;43.00;40.60;;;;;;;;;;5066770;28;20358;-47
2022/04/14 06:29:49;;;;;;;41.55;39.20;;;;;;;;;;5073398;28;20646;-46
2022/04/14 06:32:15;;;;;;;45.17;42.63;;;;;;;;;;5069609;28;20462;-46
2022/04/14 06:34:40;;;;;;;39.42;37.28;;;;;;;;;;5072802;28;20354;-48
2022/04/14 06:37:06;;;;;;;44.30;41.92;;;;;;;;;;5074514;28;20566;-46
2022/04/14 06:39:31;;;;;;;53.50;50.55;;;;;;;;;;5075752;28;20040;-46
2022/04/14 06:41:56;;;;;;;43.58;41.15;;;;;;;;;;5072312;28;20367;-45
2022/04/14 06:44:22;;;;;;;48.28;45.58;;;;;;;;;;5074831;28;20040;-46
2022/04/14 06:46:47;;;;;;;42.25;39.88;;;;;;;;;;5077900;28;20032;-47
2022/04/14 06:49:13;;;;;;;45.17;42.78;;;;;;;;;;5073549;28;20548;-46
2022/04/14 06:51:38;;;;;;;44.97;42.47;;;;;;;;;;5068257;28;20038;-51
2022/04/14 06:54:03;;;;;;;47.10;44.53;;;;;;;;;;5067900;28;20056;-50
2022/04/14 06:56:29;;;;;;;40.45;37.85;;;;;;;;;;5067181;28;20139;-47
2022/04/14 06:58:54;;;;;;;43.70;41.35;;;;;;;;;;5067954;28;20035;-46
2022/04/14 07:01:20;;;;;;;47.75;45.13;;;;;;;;;;5069603;28;20357;-48
2022/04/14 07:03:45;;;;;;;38.25;36.15;;;;;;;;;;5066387;28;20036;-48
2022/04/14 07:06:11;;;;;;;39.60;37.20;;;;;;;;;;5068416;28;20044;-47
2022/04/14 07:08:38;;;;;;;36.10;34.08;;;;;;;;;;5070347;28;20047;-48
2022/04/14 07:11:04;;;;;;;42.03;39.83;;;;;;;;;;5062806;28;20507;-46
2022/04/14 07:13:29;;;;;;;50.72;48.05;;;;;;;;;;5067347;28;20163;-46
2022/04/14 07:15:55;;;;;;;50.35;47.58;;;;;;;;;;5073063;28;20253;-46
2022/04/14 07:18:22;;;;;;;42.50;40.03;;;;;;;;;;5070811;28;20101;-49
2022/04/14 07:20:48;;;;;;;48.70;45.60;;;;;;;;;;5069978;28;20039;-50
2022/04/14 07:23:14;;;;;;;49.15;46.15;;;;;;;;;;5070382;28;20037;-47
2022/04/14 07:25:39;;;;;;;41.42;39.17;;;;;;;;;;5070956;28;20032;-47
2022/04/14 07:28:05;;;;;;;34.30;32.42;;;;;;;;;;5071518;28;20028;-48
2022/04/14 07:30:31;;;;;;;33.85;31.98;;;;;;;;;;5068351;28;20056;-47
2022/04/14 07:32:57;;;;;;;37.25;35.25;;;;;;;;;;5072729;28;20094;-45
2022/04/14 07:35:25;;;;;;;43.20;40.75;;;;;;;;;;5073484;28;20056;-47
2022/04/14 07:37:51;;;;;;;32.72;30.92;;;;;;;;;;5072887;28;20051;-46
2022/04/14 07:40:17;;;;;;;33.63;31.73;;;;;;;;;;5069024;28;20365;-48
2022/04/14 07:42:44;;;;;;;38.20;36.10;;;;;;;;;;5071408;28;20115;-47
2022/04/14 07:45:11;;;;;;;44.45;42.00;;;;;;;;;;5069353;28;20028;-46
2022/04/14 07:47:41;;;;;;;33.95;32.15;;;;;;;;;;5066465;28;20040;-49
2022/04/14 07:50:08;;;;;;;38.37;35.97;;;;;;;;;;5069462;28;20454;-50
2022/04/14 07:52:51;;;;;;;37.88;35.45;;;;;;;;;;5070716;28;20032;-47
2022/04/14 07:55:20;;;;;;;39.85;37.58;;;;;;;;;;5072638;28;20036;-49
2022/04/14 07:57:46;;;;;;;40.85;38.55;;;;;;;;;;5074253;28;20147;-48
2022/04/14 08:00:12;;;;;;;39.60;37.42;;;;;;;;;;5069681;28;20195;-48
2022/04/14 08:02:56;;;;;;;38.78;36.47;;;;;;;;;;5071333;28;20455;-47
2022/04/14 08:05:33;;;;;;;35.55;33.28;;;;;;;;;;5071194;28;20028;-49
2022/04/14 08:07:59;;;;;;;35.72;33.72;;;;;;;;;;5071979;28;20059;-47
2022/04/14 08:10:25;;;;;;;32.03;30.15;;;;;;;;;;5070683;28;20090;-47
2022/04/14 08:12:50;;;;;;;35.55;33.60;;;;;;;;;;5072730;28;20032;-49
2022/04/14 08:15:16;;;;;;;31.10;29.40;;;;;;;;;;5071271;28;20043;-48
2022/04/14 08:17:42;;;;;;;33.38;31.30;;;;;;;;;;5068919;28;20044;-48
2022/04/14 08:20:09;;;;;;;29.60;27.90;;;;;;;;;;5067480;28;20060;-48
2022/04/14 08:22:52;;;;;;;28.10;26.42;;;;;;;;;;5068726;28;20042;-48
2022/04/14 08:25:24;;;;;;;29.05;27.20;;;;;;;;;;5068699;28;20418;-48
2022/04/14 08:27:50;;;;;;;37.28;35.22;;;;;;;;;;5068378;28;20036;-48
2022/04/14 08:30:17;;;;;;;28.60;26.90;;;;;;;;;;5071090;28;20040;-48
2022/04/14 08:32:44;;;;;;;33.35;31.42;;;;;;;;;;5070623;28;20129;-47
2022/04/14 08:35:10;;;;;;;46.13;43.67;;;;;;;;;;5069373;28;20043;-47
2022/04/14 08:37:36;;;;;;;32.55;30.73;;;;;;;;;;5073265;28;20036;-47
2022/04/14 08:40:05;;;;;;;37.53;35.53;;;;;;;;;;5071205;28;20115;-46
2022/04/14 08:42:35;;;;;;;37.38;35.38;;;;;;;;;;5066154;28;20081;-47
2022/04/14 08:45:03;;;;;;;34.65;32.78;;;;;;;;;;5072662;28;20032;-48
2022/04/14 08:47:29;;;;;;;40.80;38.47;;;;;;;;;;5073700;28;20040;-47
2022/04/14 08:49:56;;;;;;;37.38;35.42;;;;;;;;;;5074432;28;20032;-46
2022/04/14 08:52:22;;;;;;;32.67;30.80;;;;;;;;;;5070902;28;20545;-49
2022/04/14 08:54:49;;;;;;;34.95;33.00;;;;;;;;;;5071804;28;20036;-47
2022/04/14 08:57:15;;;;;;;38.30;36.30;;;;;;;;;;5069415;28;20040;-47
2022/04/14 08:59:45;;;;;;;37.15;35.05;;;;;;;;;;5067773;28;20092;-45
2022/04/14 09:02:17;;;;;;;38.20;36.17;;;;;;;;;;5065387;28;20028;-47
2022/04/14 09:04:43;;;;;;;41.95;39.72;;;;;;;;;;5066519;28;20115;-45
2022/04/14 09:07:10;;;;;;;52.75;49.95;;;;;;;;;;5064989;28;20048;-46
2022/04/14 09:09:35;;;;;;;66.75;63.28;;;;;;;;;;5065845;28;20039;-48
2022/04/14 09:12:01;;;;;;;59.33;55.97;;;;;;;;;;5065908;28;20040;-46
2022/04/14 09:14:27;;;;;;;62.28;59.00;;;;;;;;;;5068796;28;20036;-46
2022/04/14 09:16:52;;;;;;;56.30;53.22;;;;;;;;;;5070027;28;20641;-47
2022/04/14 09:19:18;;;;;;;59.53;56.25;;;;;;;;;;5066955;28;21097;-48
2022/04/14 09:22:04;;;;;;;33.95;32.10;;;;;;;;;;5069512;28;20479;-47
2022/04/14 09:24:39;;;;;;;30.33;28.60;;;;;;;;;;5070126;28;20047;-51
2022/04/14 09:27:06;;;;;;;66.53;63.00;;;;;;;;;;5073881;28;20040;-48
2022/04/14 09:29:32;;;;;;;34.10;32.10;;;;;;;;;;5068898;28;20082;-47
2022/04/14 09:31:57;;;;;;;53.53;50.45;;;;;;;;;;5068867;28;20083;-46
2022/04/14 09:34:49;;;;;;;83.47;79.15;;;;;;;;;;5067058;28;20043;-46
2022/04/14 09:37:15;;;;;;;82.65;78.43;;;;;;;;;;5063189;28;20071;-47
2022/04/14 09:40:08;;;;;;;65.95;62.50;;;;;;;;;;5066646;28;20032;-49
2022/04/14 09:42:35;;;;;;;127.10;120.75;;;;;;;;;;5068254;28;20493;-46
2022/04/14 09:45:20;;;;;;;112.35;106.70;;;;;;;;;;5071516;28;20036;-50
2022/04/14 09:48:22;;;;;;;87.00;82.60;;;;;;;;;;5068784;28;20032;-46
2022/04/14 09:50:48;;;;;;;108.15;102.78;;;;;;;;;;5069818;28;20032;-47
2022/04/14 09:53:20;;;;;;;124.45;118.28;;;;;;;;;;5069127;28;20044;-55
2022/04/14 09:55:51;;;;;;;107.15;101.88;;;;;;;;;;5073716;28;20462;-54
2022/04/14 09:58:18;;;;;;;109.97;104.50;;;;;;;;;;5067765;28;20256;-56
2022/04/14 10:00:48;;;;;;;92.18;87.57;;;;;;;;;;5074103;28;20044;-56
2022/04/14 10:03:20;;;;;;;47.85;45.28;;;;;;;;;;5068218;28;20329;-55
2022/04/14 10:05:51;;;;;;;52.25;49.58;;;;;;;;;;5069114;28;20029;-56
2022/04/14 10:08:17;;;;;;;86.93;82.60;;;;;;;;;;5074023;28;20031;-54
2022/04/14 10:10:44;;;;;;;39.45;37.40;;;;;;;;;;5073902;28;20032;-55
2022/04/14 10:13:18;;;;;;;25.58;24.23;;;;;;;;;;5071723;28;20046;-56
2022/04/14 10:15:46;;;;;;;22.67;21.38;;;;;;;;;;5068910;28;20047;-55
2022/04/14 10:18:13;;;;;;;31.45;29.83;;;;;;;;;;5076089;28;20115;-57
2022/04/14 10:20:41;;;;;;;22.05;20.85;;;;;;;;;;5077888;28;20043;-52
2022/04/14 10:23:12;;;;;;;26.05;24.65;;;;;;;;;;5077873;28;20195;-54
2022/04/14 10:25:38;;;;;;;23.20;21.95;;;;;;;;;;5075211;28;20435;-49
2022/04/14 10:28:11;;;;;;;38.50;36.50;;;;;;;;;;5077267;28;20111;-50
2022/04/14 10:30:36;;;;;;;34.85;33.05;;;;;;;;;;5077144;28;20040;-55
2022/04/14 10:33:02;;;;;;;23.15;21.90;;;;;;;;;;5069663;28;20055;-57
2022/04/14 10:35:29;;;;;;;22.73;21.50;;;;;;;;;;5070391;28;20051;-54
2022/04/14 10:38:05;;;;;;;26.50;25.10;;;;;;;;;;5069487;28;20083;-55
2022/04/14 10:40:32;;;;;;;30.98;29.38;;;;;;;;;;5067768;28;20036;-57
2022/04/14 10:42:58;;;;;;;22.58;21.38;;;;;;;;;;5073983;28;20040;-55
2022/04/14 10:45:24;;;;;;;26.13;24.70;;;;;;;;;;5069569;28;20079;-54
2022/04/14 10:47:49;;;;;;;35.28;33.45;;;;;;;;;;5066804;28;20059;-56
2022/04/14 10:50:32;;;;;;;24.08;22.77;;;;;;;;;;5066853;28;20044;-55
2022/04/14 10:53:04;;;;;;;21.30;20.10;;;;;;;;;;5067299;28;20047;-56
2022/04/14 10:55:41;;;;;;;20.10;19.00;;;;;;;;;;5073202;28;20052;-56
2022/04/14 10:58:27;;;;;;;25.00;23.65;;;;;;;;;;5069115;28;20077;-55
2022/04/14 11:00:54;;;;;;;46.08;43.70;;;;;;;;;;5072988;28;20028;-57
2022/04/14 11:03:20;;;;;;;25.50;24.13;;;;;;;;;;5071886;28;20059;-57
2022/04/14 11:05:50;;;;;;;49.80;47.25;;;;;;;;;;5074115;28;20044;-57
2022/04/14 11:08:31;;;;;;;43.92;41.67;;;;;;;;;;5070766;28;20036;-49
2022/04/14 11:11:13;;;;;;;42.13;39.95;;;;;;;;;;5071417;28;20431;-47
2022/04/14 11:13:50;;;;;;;74.90;71.10;;;;;;;;;;5068211;28;20062;-47
2022/04/14 11:16:38;;;;;;;31.95;30.20;;;;;;;;;;5067336;28;20066;-48
2022/04/14 11:19:18;;;;;;;47.55;45.10;;;;;;;;;;5068664;28;20028;-57
2022/04/14 11:22:01;;;;;;;26.13;24.67;;;;;;;;;;5071833;28;20114;-46
2022/04/14 11:24:36;;;;;;;22.83;21.40;;;;;;;;;;5064323;28;20036;-58
2022/04/14 11:27:14;;;;;;;34.17;32.40;;;;;;;;;;5065588;28;20842;-58
2022/04/14 11:29:42;;;;;;;40.47;38.10;;;;;;;;;;5069327;28;20041;-58
2022/04/14 11:32:09;;;;;;;21.63;20.42;;;;;;;;;;5061786;28;20640;-48
2022/04/14 11:34:35;;;;;;;31.63;29.95;;;;;;;;;;5062205;28;20041;-47
2022/04/14 11:37:01;;;;;;;38.63;36.60;;;;;;;;;;5065254;28;20032;-50
2022/04/14 11:39:28;;;;;;;26.40;25.00;;;;;;;;;;5062219;28;20036;-47
2022/04/14 11:42:07;;;;;;;26.63;25.20;;;;;;;;;;5067236;28;20032;-50
2022/04/14 11:44:34;;;;;;;20.65;19.48;;;;;;;;;;5065157;28;20045;-48
2022/04/14 11:47:01;;;;;;;21.65;20.48;;;;;;;;;;5064123;28;20044;-58
2022/04/14 11:49:29;;;;;;;24.83;23.50;;;;;;;;;;5067760;28;20040;-58
2022/04/14 11:52:05;;;;;;;23.85;22.55;;;;;;;;;;5065265;28;20115;-55
2022/04/14 11:54:30;;;;;;;24.75;23.25;;;;;;;;;;5069050;28;20036;-56
2022/04/14 11:56:58;;;;;;;22.17;20.98;;;;;;;;;;5073332;28;20383;-54
2022/04/14 11:59:37;;;;;;;25.38;23.98;;;;;;;;;;5068652;28;20032;-57
2022/04/14 12:02:18;;;;;;;24.98;23.60;;;;;;;;;;5063861;28;20028;-48
2022/04/14 12:04:45;;;;;;;23.45;22.15;;;;;;;;;;5066463;28;20032;-56
2022/04/14 12:07:11;;;;;;;26.25;24.77;;;;;;;;;;5070136;28;20066;-49
2022/04/14 12:09:37;;;;;;;26.73;25.33;;;;;;;;;;5067236;28;20043;-57
2022/04/14 12:12:12;;;;;;;25.25;23.85;;;;;;;;;;5067582;28;20033;-56
2022/04/14 12:14:46;;;;;;;21.63;20.42;;;;;;;;;;5066882;28;20978;-57
2022/04/14 12:17:12;;;;;;;21.63;20.42;;;;;;;;;;5068548;28;20102;-57
2022/04/14 12:19:46;;;;;;;19.83;18.73;;;;;;;;;;5066536;28;20743;-57
2022/04/14 12:22:12;;;;;;;22.58;21.27;;;;;;;;;;5065844;28;20044;-55
2022/04/14 12:24:38;;;;;;;20.63;19.42;;;;;;;;;;5064236;28;20040;-58
2022/04/14 12:27:04;;;;;;;24.02;22.73;;;;;;;;;;5067108;28;20100;-57
2022/04/14 12:29:30;;;;;;;18.67;17.67;;;;;;;;;;5065723;28;20039;-56
2022/04/14 12:32:11;;;;;;;21.63;20.42;;;;;;;;;;5065439;28;20296;-54
2022/04/14 12:34:44;;;;;;;22.30;21.00;;;;;;;;;;5062043;28;20051;-54
2022/04/14 12:37:13;;;;;;;24.73;23.40;;;;;;;;;;5065500;28;20036;-54
2022/04/14 12:39:54;;;;;;;30.65;28.98;;;;;;;;;;5072018;28;20082;-55
2022/04/14 12:42:19;;;;;;;19.00;17.90;;;;;;;;;;5070718;28;20036;-47
2022/04/14 12:44:44;;;;;;;24.48;23.15;;;;;;;;;;5074930;28;20105;-48
2022/04/14 12:47:15;;;;;;;20.90;19.75;;;;;;;;;;5067420;28;20914;-47
2022/04/14 12:49:42;;;;;;;22.08;20.88;;;;;;;;;;5070303;28;20028;-46
2022/04/14 12:52:09;;;;;;;24.60;23.23;;;;;;;;;;5063425;28;20125;-48
2022/04/14 12:54:47;;;;;;;27.40;25.90;;;;;;;;;;5074173;28;20106;-47
2022/04/14 12:57:18;;;;;;;23.70;22.40;;;;;;;;;;5080057;28;20036;-49
2022/04/14 13:00:11;;;;;;;34.38;32.58;;;;;;;;;;5079995;28;20039;-54
2022/04/14 13:02:39;;;;;;;34.50;32.70;;;;;;;;;;5076814;28;20415;-46
2022/04/14 13:05:05;;;;;;;37.30;35.33;;;;;;;;;;5078784;28;20048;-46
2022/04/14 13:07:44;;;;;;;43.22;40.78;;;;;;;;;;5077851;28;20032;-48
2022/04/14 13:10:09;;;;;;;41.33;39.22;;;;;;;;;;5087021;28;20059;-46
2022/04/14 13:12:39;;;;;;;41.63;39.53;;;;;;;;;;5076046;28;20060;-49
2022/04/14 13:15:06;;;;;;;;;;;;;;;;;;5077663;28;20036;-56
2022/04/14 13:17:36;;;;;;;31.48;29.70;;;;;;;;;;5069263;28;19927;-56
2022/04/14 13:20:16;;;;;;;32.08;30.38;;;;;;;;;;5071686;28;20038;-56
2022/04/14 13:22:41;;;;;;;33.05;31.35;;;;;;;;;;5078703;28;20123;-53
2022/04/14 13:25:07;;;;;;;31.42;29.77;;;;;;;;;;5071803;28;20632;-48
2022/04/14 13:27:33;;;;;;;29.58;27.98;;;;;;;;;;5069210;28;20104;-46
2022/04/14 13:30:00;;;;;;;34.95;33.15;;;;;;;;;;5070000;28;20032;-49
2022/04/14 13:32:26;;;;;;;34.35;32.35;;;;;;;;;;5073460;28;20098;-45
2022/04/14 13:34:51;;;;;;;37.60;35.58;;;;;;;;;;5079045;28;20036;-47
2022/04/14 13:37:17;;;;;;;39.08;37.08;;;;;;;;;;5070348;28;20043;-46
2022/04/14 13:39:42;;;;;;;46.17;43.83;;;;;;;;;;5065597;28;20050;-48
2022/04/14 13:42:08;;;;;;;49.17;46.58;;;;;;;;;;5065205;28;20170;-46
2022/04/14 13:44:33;;;;;;;43.60;41.33;;;;;;;;;;5066814;28;20036;-49
2022/04/14 13:46:59;;;;;;;46.70;44.20;;;;;;;;;;5068106;28;20050;-49
2022/04/14 13:49:25;;;;;;;40.35;38.25;;;;;;;;;;5068582;28;20071;-51
2022/04/14 13:51:51;;;;;;;33.88;32.13;;;;;;;;;;5069424;28;20139;-51
2022/04/14 13:54:17;;;;;;;31.70;29.98;;;;;;;;;;5074169;28;20054;-47
2022/04/14 13:56:42;;;;;;;38.00;36.03;;;;;;;;;;5072494;28;20032;-47
2022/04/14 13:59:08;;;;;;;39.65;37.60;;;;;;;;;;5074041;28;20032;-46
2022/04/14 14:01:34;;;;;;;29.83;28.25;;;;;;;;;;5067537;28;20652;-49
2022/04/14 14:03:59;;;;;;;42.00;39.80;;;;;;;;;;5071665;28;20063;-49
2022/04/14 14:06:25;;;;;;;34.05;32.25;;;;;;;;;;5074345;28;20066;-46
2022/04/14 14:08:51;;;;;;;29.80;28.23;;;;;;;;;;5070861;28;20079;-48
2022/04/14 14:11:16;;;;;;;29.73;28.15;;;;;;;;;;5069414;28;20048;-50
2022/04/14 14:13:42;;;;;;;37.38;34.85;;;;;;;;;;5069118;28;20031;-48
2022/04/14 14:16:07;;;;;;;30.52;28.92;;;;;;;;;;5068869;28;20113;-48
2022/04/14 14:18:32;;;;;;;29.63;28.05;;;;;;;;;;5066885;28;20040;-49
2022/04/14 14:20:58;;;;;;;26.83;25.23;;;;;;;;;;5063745;28;20111;-48